Time;durP1;ratioP1;P1;durP2;ratioP2;P2;SDS_P1;SDS_P2;PMS_P1;PMS_P2;Temp;Humidity;BMP_temperature;BMP_pressure;BME280_temperature;BME280_humidity;BME280_pressure;Samples;Min_cycle;Max_cycle;Signal;HPM_P1;HPM_P2
2021/04/13 00:02:30;;;;;;;23.43;12.37;;;-0.70;99.90;;;;;;5064353;28;20279;-61
2021/04/13 00:05:00;;;;;;;21.67;11.73;;;-0.70;99.90;;;;;;5057736;28;20299;-61
2021/04/13 00:07:30;;;;;;;21.47;12.93;;;-0.70;99.90;;;;;;5068977;28;20189;-60
2021/04/13 00:10:07;;;;;;;21.83;12.33;;;-0.70;99.90;;;;;;5065879;28;20298;-61
2021/04/13 00:12:36;;;;;;;21.63;12.03;;;-0.70;99.90;;;;;;5071253;28;20191;-61
2021/04/13 00:15:08;;;;;;;19.37;11.33;;;-0.80;99.90;;;;;;5065408;28;20192;-61
2021/04/13 00:17:36;;;;;;;20.87;12.00;;;-0.80;99.90;;;;;;5067782;28;20228;-61
2021/04/13 00:20:10;;;;;;;23.30;12.20;;;-0.80;99.90;;;;;;5064782;28;20184;-61
2021/04/13 00:22:40;;;;;;;19.90;11.47;;;-0.90;99.90;;;;;;5058697;28;20274;-60
2021/04/13 00:25:10;;;;;;;23.73;12.07;;;-0.80;99.90;;;;;;5064995;28;20192;-61
2021/04/13 00:27:39;;;;;;;24.60;12.50;;;-0.90;99.90;;;;;;5065122;28;20194;-60
2021/04/13 00:30:12;;;;;;;18.73;11.93;;;-0.90;99.90;;;;;;5065373;28;20351;-60
2021/04/13 00:32:47;;;;;;;23.00;12.30;;;-1.00;99.90;;;;;;5069489;28;20188;-61
2021/04/13 00:35:28;;;;;;;19.17;11.90;;;-1.00;99.90;;;;;;5068372;28;20201;-61
2021/04/13 00:38:27;;;;;;;23.07;12.17;;;-1.10;99.90;;;;;;5064053;28;20184;-61
2021/04/13 00:40:56;;;;;;;20.70;11.47;;;-1.10;99.90;;;;;;5063930;28;20322;-61
2021/04/13 00:43:26;;;;;;;27.67;11.63;;;-1.10;99.90;;;;;;5066462;28;20192;-61
2021/04/13 00:45:57;;;;;;;18.37;11.37;;;-1.10;99.90;;;;;;5064811;28;20286;-61
2021/04/13 00:48:30;;;;;;;20.57;11.87;;;-1.10;99.90;;;;;;5073325;28;20191;-61
2021/04/13 00:51:04;;;;;;;19.80;12.23;;;-1.00;99.90;;;;;;5065916;28;20192;-61
2021/04/13 00:53:35;;;;;;;19.67;11.83;;;-0.90;99.90;;;;;;5062822;28;20234;-61
2021/04/13 00:56:07;;;;;;;18.40;11.67;;;-0.90;99.90;;;;;;5064429;28;20237;-61
2021/04/13 00:58:41;;;;;;;23.13;12.30;;;-0.90;99.90;;;;;;5069947;28;20557;-61
2021/04/13 01:01:21;;;;;;;19.93;12.33;;;-0.80;99.90;;;;;;5061378;28;20192;-61
2021/04/13 01:03:53;;;;;;;17.90;11.33;;;-0.80;99.90;;;;;;5065217;28;20287;-61
2021/04/13 01:06:25;;;;;;;18.90;11.67;;;-0.70;99.90;;;;;;5065244;28;20196;-59
2021/04/13 01:09:04;;;;;;;20.60;12.53;;;-0.70;99.90;;;;;;5063913;28;20279;-61
2021/04/13 01:11:38;;;;;;;21.43;12.07;;;-0.70;99.90;;;;;;5061605;28;20239;-61
2021/04/13 01:14:10;;;;;;;22.83;13.30;;;-0.70;99.90;;;;;;5063247;28;20208;-61
2021/04/13 01:16:42;;;;;;;20.90;11.97;;;-0.80;99.90;;;;;;5066636;28;20263;-61
2021/04/13 01:19:17;;;;;;;23.17;12.60;;;-0.90;99.90;;;;;;5061309;28;20196;-61
2021/04/13 01:21:54;;;;;;;21.63;11.97;;;-0.90;99.90;;;;;;5068654;28;20287;-60
2021/04/13 01:24:27;;;;;;;21.60;13.07;;;-0.90;99.90;;;;;;5064997;28;20192;-61
2021/04/13 01:26:55;;;;;;;27.90;14.30;;;-1.00;99.90;;;;;;5066410;28;20188;-61
2021/04/13 01:29:26;;;;;;;28.57;13.87;;;-1.00;99.90;;;;;;5066256;28;20196;-61
2021/04/13 01:31:57;;;;;;;21.40;12.13;;;-1.00;99.90;;;;;;5065091;28;20288;-61
2021/04/13 01:34:30;;;;;;;22.63;12.73;;;-1.10;99.90;;;;;;5061914;28;20633;-60
2021/04/13 01:37:14;;;;;;;26.60;12.60;;;-1.10;99.90;;;;;;5076220;28;20309;-61
2021/04/13 01:39:51;;;;;;;21.20;12.27;;;-1.20;99.90;;;;;;5062102;28;20241;-61
2021/04/13 01:42:21;;;;;;;22.37;11.93;;;-1.20;99.90;;;;;;5067412;28;20419;-61
2021/04/13 01:44:52;;;;;;;19.50;11.40;;;-1.30;99.90;;;;;;5067854;28;20223;-61
2021/04/13 01:47:23;;;;;;;20.30;11.70;;;-1.30;99.90;;;;;;5068879;28;20249;-61
2021/04/13 01:49:55;;;;;;;19.87;10.87;;;-1.30;99.90;;;;;;5063427;28;20587;-61
2021/04/13 01:52:26;;;;;;;17.27;10.57;;;-1.30;99.90;;;;;;5070970;28;20294;-61
2021/04/13 01:54:54;;;;;;;18.80;11.13;;;-1.30;99.90;;;;;;5056259;28;20216;-61
2021/04/13 01:57:31;;;;;;;17.90;10.93;;;-1.30;99.90;;;;;;5069723;28;20237;-61
2021/04/13 02:00:09;;;;;;;18.53;11.13;;;-1.30;99.90;;;;;;5068761;28;20286;-61
2021/04/13 02:02:44;;;;;;;16.13;10.33;;;-1.30;99.90;;;;;;5068475;28;20200;-61
2021/04/13 02:05:15;;;;;;;22.10;11.60;;;-1.30;99.90;;;;;;5062253;28;20196;-61
2021/04/13 02:07:53;;;;;;;16.87;10.30;;;-1.40;99.90;;;;;;5069640;28;20192;-61
2021/04/13 02:10:27;;;;;;;16.73;10.80;;;-1.40;99.90;;;;;;5071739;28;20192;-61
2021/04/13 02:12:59;;;;;;;17.30;10.47;;;-1.40;99.90;;;;;;5073274;28;20188;-61
2021/04/13 02:15:33;;;;;;;16.17;10.43;;;-1.40;99.90;;;;;;5065425;28;20250;-61
2021/04/13 02:18:03;;;;;;;18.60;11.03;;;-1.50;99.90;;;;;;5067688;28;20199;-61
2021/04/13 02:20:34;;;;;;;18.87;10.40;;;-1.50;99.90;;;;;;5067131;28;20287;-61
2021/04/13 02:23:04;;;;;;;17.53;10.20;;;-1.50;99.90;;;;;;5070278;28;20243;-61
2021/04/13 02:25:34;;;;;;;18.73;11.07;;;-1.60;99.90;;;;;;5075594;28;20662;-61
2021/04/13 02:28:03;;;;;;;21.47;11.40;;;-1.60;99.90;;;;;;5066221;28;20188;-61
2021/04/13 02:30:35;;;;;;;29.33;14.03;;;-1.50;99.90;;;;;;5068925;28;20295;-61
2021/04/13 02:33:11;;;;;;;23.73;12.67;;;-1.50;99.90;;;;;;5068930;28;20203;-61
2021/04/13 02:35:40;;;;;;;22.47;12.40;;;-1.50;99.90;;;;;;5069526;28;20557;-61
2021/04/13 02:38:13;;;;;;;18.17;11.10;;;-1.60;99.90;;;;;;5072671;28;20231;-61
2021/04/13 02:40:48;;;;;;;18.90;11.47;;;-1.60;99.90;;;;;;5067711;28;20200;-61
2021/04/13 02:43:19;;;;;;;17.23;10.63;;;-1.60;99.90;;;;;;5068937;28;20188;-61
2021/04/13 02:45:51;;;;;;;17.77;10.93;;;-1.60;99.90;;;;;;5076747;28;20284;-60
2021/04/13 02:48:24;;;;;;;20.13;10.77;;;-1.60;99.90;;;;;;5072486;28;20267;-61
2021/04/13 02:50:55;;;;;;;18.47;11.23;;;-1.60;99.90;;;;;;5064569;28;20200;-60
2021/04/13 02:53:26;;;;;;;18.13;10.67;;;-1.60;99.90;;;;;;5059982;28;20606;-61
2021/04/13 02:55:57;;;;;;;19.87;10.20;;;-1.70;99.90;;;;;;5078914;28;20229;-61
2021/04/13 02:58:32;;;;;;;22.60;11.00;;;-1.70;99.90;;;;;;5075895;28;20544;-61
2021/04/13 03:01:01;;;;;;;18.10;10.17;;;-1.70;99.90;;;;;;5067552;28;20199;-61
2021/04/13 03:03:32;;;;;;;16.67;10.63;;;-1.70;99.90;;;;;;5065976;28;20196;-61
2021/04/13 03:06:00;;;;;;;19.73;10.77;;;-1.70;99.90;;;;;;5062777;28;20266;-61
2021/04/13 03:08:29;;;;;;;17.57;10.93;;;-1.80;99.90;;;;;;5067664;28;21446;-61
2021/04/13 03:11:05;;;;;;;17.60;10.93;;;-1.80;99.90;;;;;;5067914;28;20219;-61
2021/04/13 03:13:35;;;;;;;18.73;11.10;;;-1.80;99.90;;;;;;5067113;28;20312;-61
2021/04/13 03:16:06;;;;;;;17.90;10.67;;;-1.70;99.90;;;;;;5061978;28;20317;-61
2021/04/13 03:18:35;;;;;;;24.77;13.27;;;-1.70;99.90;;;;;;5064065;28;20299;-61
2021/04/13 03:21:07;;;;;;;18.07;11.57;;;-1.60;99.90;;;;;;5067273;28;20316;-61
2021/04/13 03:23:36;;;;;;;20.90;11.47;;;-1.60;99.90;;;;;;5073916;28;20214;-61
2021/04/13 03:26:07;;;;;;;22.50;11.00;;;-1.60;99.90;;;;;;5069758;28;20740;-61
2021/04/13 03:28:39;;;;;;;21.80;11.47;;;-1.60;99.90;;;;;;5070194;28;20248;-61
2021/04/13 03:31:08;;;;;;;21.07;11.10;;;-1.60;99.90;;;;;;5066666;28;20736;-61
2021/04/13 03:33:37;;;;;;;16.93;10.73;;;-1.60;99.90;;;;;;5064681;28;20212;-61
2021/04/13 03:36:08;;;;;;;16.50;11.20;;;-1.60;99.90;;;;;;5066225;28;20283;-61
2021/04/13 03:38:38;;;;;;;16.23;10.57;;;-1.70;99.90;;;;;;5078898;28;20199;-60
2021/04/13 03:41:13;;;;;;;21.03;11.27;;;-1.70;99.90;;;;;;5066269;28;20659;-61
2021/04/13 03:43:41;;;;;;;19.53;11.47;;;-1.80;99.90;;;;;;5067620;28;20195;-61
2021/04/13 03:46:11;;;;;;;21.37;11.70;;;-1.80;99.90;;;;;;5068040;28;20184;-61
2021/04/13 03:48:42;;;;;;;18.27;11.00;;;-1.80;99.90;;;;;;5064979;28;20219;-61
2021/04/13 03:51:15;;;;;;;21.77;11.60;;;-1.80;99.90;;;;;;5063516;28;20202;-61
2021/04/13 03:53:44;;;;;;;24.57;12.20;;;-1.80;99.90;;;;;;5068386;28;20212;-61
2021/04/13 03:56:14;;;;;;;23.33;12.40;;;-1.70;99.90;;;;;;5067012;28;20230;-61
2021/04/13 03:58:46;;;;;;;23.77;12.17;;;-1.70;99.90;;;;;;5068621;28;20200;-61
2021/04/13 04:01:18;;;;;;;18.87;11.80;;;-1.60;99.90;;;;;;5060794;28;20423;-61
2021/04/13 04:03:51;;;;;;;25.60;13.30;;;-1.50;99.90;;;;;;5066113;28;20596;-61
2021/04/13 04:06:38;;;;;;;20.63;12.23;;;-1.60;99.90;;;;;;5063172;28;20215;-61
2021/04/13 04:09:15;;;;;;;21.07;12.30;;;-1.50;99.90;;;;;;5062574;28;20188;-60
2021/04/13 04:11:43;;;;;;;25.23;12.53;;;-1.60;99.90;;;;;;5065577;28;20228;-61
2021/04/13 04:14:17;;;;;;;22.77;13.03;;;-1.70;99.90;;;;;;5070620;28;20318;-60
2021/04/13 04:16:45;;;;;;;19.80;12.83;;;-1.80;99.90;;;;;;5060277;28;20273;-61
2021/04/13 04:19:17;;;;;;;23.60;13.30;;;-1.80;99.90;;;;;;5056517;28;20218;-61
2021/04/13 04:21:48;;;;;;;22.10;12.60;;;-1.80;99.90;;;;;;5065246;28;20196;-61
2021/04/13 04:24:22;;;;;;;24.07;12.73;;;-1.80;99.90;;;;;;5065722;28;20196;-61
2021/04/13 04:26:55;;;;;;;22.50;13.00;;;-1.80;99.90;;;;;;5068856;28;20237;-61
2021/04/13 04:29:36;;;;;;;23.17;12.87;;;-1.80;99.90;;;;;;5064086;28;20180;-61
2021/04/13 04:32:18;;;;;;;22.73;12.73;;;-1.80;99.90;;;;;;5070482;28;20192;-60
2021/04/13 04:34:54;;;;;;;21.90;12.37;;;-1.90;99.90;;;;;;5065870;28;20285;-61
2021/04/13 04:37:31;;;;;;;25.17;12.97;;;-1.80;99.90;;;;;;5066302;28;20192;-61
2021/04/13 04:40:20;;;;;;;29.43;13.47;;;-1.50;99.90;;;;;;5067888;28;20195;-60
2021/04/13 04:42:52;;;;;;;23.90;12.87;;;-1.70;99.90;;;;;;5061694;28;20193;-60
2021/04/13 04:45:33;;;;;;;23.57;13.00;;;-1.70;99.90;;;;;;5067857;28;20193;-61
2021/04/13 04:48:18;;;;;;;24.67;13.10;;;-1.80;99.90;;;;;;5065745;28;20214;-61
2021/04/13 04:50:46;;;;;;;27.80;13.67;;;-1.90;99.90;;;;;;5064227;28;20311;-61
2021/04/13 04:53:13;;;;;;;25.20;13.47;;;-2.00;99.90;;;;;;5062463;28;20184;-61
2021/04/13 04:55:41;;;;;;;21.93;13.20;;;-2.00;99.90;;;;;;5066380;28;20208;-61
2021/04/13 04:58:09;;;;;;;27.47;13.73;;;-2.10;99.90;;;;;;5065057;28;20241;-61
2021/04/13 05:00:36;;;;;;;25.80;13.67;;;-2.10;99.90;;;;;;5063794;28;20422;-60
2021/04/13 05:03:05;;;;;;;24.70;13.80;;;-2.10;99.90;;;;;;5073281;28;20203;-61
2021/04/13 05:05:33;;;;;;;31.67;14.80;;;-2.10;99.90;;;;;;5065879;28;20184;-61
2021/04/13 05:08:00;;;;;;;30.73;15.83;;;-2.00;99.90;;;;;;5065867;28;20192;-61
2021/04/13 05:10:29;;;;;;;34.67;16.23;;;-2.00;99.90;;;;;;5067830;28;20265;-61
2021/04/13 05:12:56;;;;;;;33.03;17.30;;;-1.90;99.90;;;;;;5068110;28;20292;-61
2021/04/13 05:15:24;;;;;;;33.50;17.37;;;-1.80;99.90;;;;;;5065298;28;20578;-60
2021/04/13 05:17:51;;;;;;;31.63;17.40;;;-1.80;99.90;;;;;;5062138;28;20223;-60
2021/04/13 05:20:20;;;;;;;44.77;20.00;;;-1.70;99.90;;;;;;5066052;28;20192;-61
2021/04/13 05:22:47;;;;;;;36.17;19.20;;;-1.80;99.90;;;;;;5063913;28;20261;-61
2021/04/13 05:25:15;;;;;;;40.90;19.03;;;-1.80;99.90;;;;;;5063834;28;20311;-61
2021/04/13 05:27:42;;;;;;;29.53;15.97;;;-1.70;99.90;;;;;;5065609;28;20267;-61
2021/04/13 05:30:12;;;;;;;34.63;16.30;;;-1.70;99.90;;;;;;5062713;28;20197;-61
2021/04/13 05:32:40;;;;;;;34.87;16.67;;;-1.60;99.90;;;;;;5065253;28;20444;-61
2021/04/13 05:35:09;;;;;;;33.27;18.17;;;-1.50;99.90;;;;;;5070109;28;20212;-61
2021/04/13 05:37:38;;;;;;;28.77;16.30;;;-1.50;99.90;;;;;;5072387;28;20192;-61
2021/04/13 05:40:08;;;;;;;39.13;18.03;;;-1.40;99.90;;;;;;5067076;28;20239;-61
2021/04/13 05:42:36;;;;;;;39.13;19.30;;;-1.10;99.90;;;;;;5069954;28;20204;-61
2021/04/13 05:45:05;;;;;;;37.20;20.17;;;-0.70;99.90;;;;;;5069919;28;20200;-61
2021/04/13 05:47:36;;;;;;;39.30;19.53;;;-0.20;99.90;;;;;;5072868;28;20532;-61
2021/04/13 05:50:09;;;;;;;29.67;18.30;;;0.20;99.90;;;;;;5064929;28;20601;-62
2021/04/13 05:52:37;;;;;;;31.37;16.50;;;0.60;99.90;;;;;;5071140;28;20291;-62
2021/04/13 05:55:06;;;;;;;25.17;16.97;;;0.80;99.90;;;;;;5073887;28;20208;-62
2021/04/13 05:57:33;;;;;;;24.87;15.67;;;1.20;99.90;;;;;;5065079;28;20767;-61
2021/04/13 06:00:02;;;;;;;21.57;14.50;;;1.60;99.90;;;;;;5063722;28;20258;-62
2021/04/13 06:02:31;;;;;;;26.00;13.70;;;2.00;99.90;;;;;;5069799;28;20231;-63
2021/04/13 06:05:00;;;;;;;22.47;13.60;;;2.40;99.90;;;;;;5065194;28;20601;-63
2021/04/13 06:07:27;;;;;;;18.90;12.83;;;2.70;99.90;;;;;;5063606;28;20746;-62
2021/04/13 06:09:56;;;;;;;18.67;13.13;;;3.10;99.90;;;;;;5069787;28;20192;-63
2021/04/13 06:12:23;;;;;;;25.03;12.90;;;3.30;99.90;;;;;;5071514;28;20228;-63
2021/04/13 06:14:51;;;;;;;20.47;12.43;;;3.70;99.90;;;;;;5072791;28;20311;-63
2021/04/13 06:17:19;;;;;;;28.23;13.13;;;4.10;99.90;;;;;;5071844;28;20280;-63
2021/04/13 06:19:47;;;;;;;19.93;13.13;;;4.30;99.90;;;;;;5064093;28;20192;-62
2021/04/13 06:22:17;;;;;;;20.23;13.10;;;4.60;99.90;;;;;;5068030;28;20282;-63
2021/04/13 06:24:45;;;;;;;21.57;13.23;;;4.90;99.90;;;;;;5076963;28;20215;-63
2021/04/13 06:27:16;;;;;;;21.70;13.03;;;5.20;99.90;;;;;;5071375;28;20432;-62
2021/04/13 06:29:43;;;;;;;23.63;13.90;;;5.50;99.90;;;;;;5068117;28;20203;-62
2021/04/13 06:32:11;;;;;;;25.27;13.50;;;5.80;99.90;;;;;;5070136;28;20280;-62
2021/04/13 06:34:39;;;;;;;25.30;13.43;;;6.00;99.90;;;;;;5065243;28;20327;-63
2021/04/13 06:37:08;;;;;;;20.20;13.27;;;6.30;99.90;;;;;;5066877;28;20193;-62
2021/04/13 06:39:38;;;;;;;19.57;12.67;;;6.60;99.90;;;;;;5068063;28;20289;-63
2021/04/13 06:42:25;;;;;;;23.30;12.80;;;7.00;99.90;;;;;;5058813;28;20196;-62
2021/04/13 06:45:13;;;;;;;23.20;12.33;;;7.30;99.90;;;;;;5063489;28;20195;-63
2021/04/13 06:48:18;;;;;;;21.10;12.03;;;7.70;99.90;;;;;;5073781;28;20661;-63
2021/04/13 06:50:53;;;;;;;23.63;11.97;;;8.10;99.90;;;;;;5064654;28;20261;-63
2021/04/13 06:53:35;;;;;;;20.50;12.60;;;8.40;99.90;;;;;;5065699;28;20199;-63
2021/04/13 06:56:37;;;;;;;27.33;15.30;;;8.80;99.90;;;;;;5059817;28;20226;-63
2021/04/13 06:59:30;;;;;;;23.43;14.83;;;9.30;99.90;;;;;;5067549;28;20478;-63
2021/04/13 07:01:59;;;;;;;18.67;14.27;;;9.60;99.90;;;;;;5064220;28;20333;-63
2021/04/13 07:04:35;;;;;;;20.67;14.37;;;10.10;99.90;;;;;;5061934;28;20654;-63
2021/04/13 07:07:07;;;;;;;20.00;12.00;;;10.50;99.90;;;;;;5061708;28;20368;-63
2021/04/13 07:09:38;;;;;;;18.90;12.10;;;10.90;99.90;;;;;;5058692;28;20600;-63
2021/04/13 07:12:14;;;;;;;22.47;12.67;;;11.20;99.90;;;;;;5062999;28;20184;-63
2021/04/13 07:14:54;;;;;;;17.13;12.17;;;11.40;99.90;;;;;;5069596;28;20269;-64
2021/04/13 07:17:31;;;;;;;20.70;11.87;;;11.60;99.90;;;;;;5065003;28;20228;-63
2021/04/13 07:20:03;;;;;;;13.63;10.23;;;11.80;99.90;;;;;;5063970;28;20284;-64
2021/04/13 07:22:36;;;;;;;13.90;11.13;;;11.90;99.90;;;;;;5055709;28;20253;-64
2021/04/13 07:25:09;;;;;;;15.63;10.33;;;12.10;99.90;;;;;;5058679;28;20208;-64
2021/04/13 07:27:45;;;;;;;12.97;9.63;;;11.90;99.90;;;;;;5060488;28;20201;-64
2021/04/13 07:30:18;;;;;;;13.93;9.67;;;11.80;99.90;;;;;;5068400;28;20754;-64
2021/04/13 07:32:47;;;;;;;12.90;8.87;;;11.90;99.90;;;;;;5060247;28;20195;-64
2021/04/13 07:35:19;;;;;;;14.60;10.70;;;12.00;99.90;;;;;;5048279;28;20222;-64
2021/04/13 07:37:48;;;;;;;18.20;10.97;;;12.30;99.90;;;;;;5058829;28;20199;-64
2021/04/13 07:40:34;;;;;;;13.23;9.37;;;12.30;99.90;;;;;;5058935;28;20188;-61
2021/04/13 07:43:06;;;;;;;13.70;8.40;;;12.50;99.90;;;;;;5060800;28;20474;-63
2021/04/13 07:45:45;;;;;;;10.10;8.40;;;12.70;99.90;;;;;;5061152;28;20265;-64
2021/04/13 07:48:24;;;;;;;11.40;7.50;;;13.10;99.90;;;;;;5065834;28;20214;-64
2021/04/13 07:51:17;;;;;;;10.60;6.17;;;13.20;99.90;;;;;;5061187;28;20192;-64
2021/04/13 07:54:00;;;;;;;11.37;5.17;;;13.30;99.90;;;;;;5058349;28;20604;-64
2021/04/13 07:56:38;;;;;;;8.07;6.00;;;13.40;99.90;;;;;;5058546;28;20211;-64
2021/04/13 07:59:14;;;;;;;7.77;6.00;;;13.70;99.90;;;;;;5058527;28;20189;-64
2021/04/13 08:01:42;;;;;;;8.03;5.77;;;14.20;99.90;;;;;;5074525;28;20232;-64
2021/04/13 08:04:11;;;;;;;8.50;6.43;;;14.60;99.90;;;;;;5063415;28;20227;-64
2021/04/13 08:06:50;;;;;;;7.97;5.33;;;14.80;99.90;;;;;;5057183;28;20238;-64
2021/04/13 08:09:30;;;;;;;7.13;4.70;;;14.40;99.90;;;;;;5057931;28;20678;-64
2021/04/13 08:12:14;;;;;;;5.37;4.70;;;14.30;99.90;;;;;;5056703;28;20192;-64
2021/04/13 08:14:44;;;;;;;4.47;4.03;;;14.40;99.90;;;;;;5055606;28;20307;-64
2021/04/13 08:17:17;;;;;;;7.67;4.60;;;14.40;99.90;;;;;;5063912;28;20281;-63
2021/04/13 08:19:56;;;;;;;5.90;3.70;;;14.90;99.90;;;;;;5058969;28;20252;-64
2021/04/13 08:22:23;;;;;;;7.20;3.70;;;15.10;99.90;;;;;;5065306;28;20578;-64
2021/04/13 08:24:53;;;;;;;4.53;3.63;;;15.40;99.90;;;;;;5057354;28;20271;-64
2021/04/13 08:27:30;;;;;;;5.70;2.77;;;14.60;99.90;;;;;;5063662;28;20207;-63
2021/04/13 08:30:09;;;;;;;4.13;2.50;;;13.50;99.90;;;;;;5059028;28;20195;-64
2021/04/13 08:32:55;;;;;;;2.50;2.10;;;13.10;99.90;;;;;;5077173;28;20195;-64
2021/04/13 08:35:37;;;;;;;4.23;1.90;;;14.20;99.90;;;;;;5062463;28;20747;-64
2021/04/13 08:38:29;;;;;;;3.20;2.17;;;13.80;99.90;;;;;;5059750;28;20259;-64
2021/04/13 08:41:14;;;;;;;2.87;1.67;;;14.40;99.90;;;;;;5064335;28;21673;-64
2021/04/13 08:43:51;;;;;;;2.77;1.60;;;15.60;99.90;;;;;;5062346;28;20188;-63
2021/04/13 08:46:27;;;;;;;2.87;1.80;;;14.60;99.90;;;;;;5058892;28;20207;-63
2021/04/13 08:49:06;;;;;;;2.10;1.70;;;14.70;99.90;;;;;;5058958;28;20543;-63
2021/04/13 08:51:42;;;;;;;5.20;1.60;;;15.30;99.90;;;;;;5060446;28;20219;-63
2021/04/13 08:54:29;;;;;;;2.80;1.67;;;15.60;99.80;;;;;;5061921;28;22036;-63
2021/04/13 08:57:01;;;;;;;1.80;1.70;;;15.30;99.90;;;;;;5057836;28;20261;-64
2021/04/13 08:59:42;;;;;;;3.90;1.50;;;15.60;99.50;;;;;;5061306;28;20196;-64
2021/04/13 09:02:13;;;;;;;4.30;2.23;;;16.20;98.90;;;;;;5063208;28;20340;-63
2021/04/13 09:04:41;;;;;;;1.67;1.40;;;16.70;99.20;;;;;;5051130;28;20718;-63
2021/04/13 09:07:15;;;;;;;3.37;1.80;;;16.80;93.40;;;;;;5071632;28;20659;-64
2021/04/13 09:09:46;;;;;;;3.40;1.67;;;17.00;96.10;;;;;;5068354;28;20219;-64
2021/04/13 09:12:28;;;;;;;3.13;1.90;;;17.80;96.10;;;;;;5088082;28;20294;-64
2021/04/13 09:15:08;;;;;;;1.70;1.57;;;18.30;94.20;;;;;;5062331;28;20513;-62
2021/04/13 09:17:45;;;;;;;2.87;1.60;;;18.90;91.60;;;;;;5059746;28;20919;-63
2021/04/13 09:20:20;;;;;;;2.93;1.63;;;19.50;91.60;;;;;;5066088;28;20220;-63
2021/04/13 09:22:50;;;;;;;3.70;1.80;;;20.20;90.00;;;;;;5060111;28;20282;-63
2021/04/13 09:25:32;;;;;;;3.47;2.13;;;20.40;87.90;;;;;;5069071;28;20271;-63
2021/04/13 09:28:11;;;;;;;2.53;1.90;;;19.10;90.80;;;;;;5062762;28;20188;-62
2021/04/13 09:30:41;;;;;;;2.83;1.60;;;19.20;88.20;;;;;;5060600;28;20191;-63
2021/04/13 09:33:29;;;;;;;1.53;1.43;;;19.00;85.50;;;;;;5062761;28;20587;-64
2021/04/13 09:36:23;;;;;;;2.83;1.90;;;16.80;88.60;;;;;;5065053;28;20704;-63
2021/04/13 09:39:26;;;;;;;2.80;2.00;;;15.50;90.00;;;;;;5071627;28;20204;-64
2021/04/13 09:42:10;;;;;;;2.43;1.63;;;14.70;91.00;;;;;;5062370;28;20764;-63
2021/04/13 09:44:55;;;;;;;2.13;1.97;;;15.20;91.50;;;;;;5061335;28;20249;-63
2021/04/13 09:47:36;;;;;;;2.93;1.83;;;15.50;89.20;;;;;;5063569;28;20260;-64
2021/04/13 09:50:17;;;;;;;2.63;1.80;;;16.70;89.70;;;;;;5061675;28;20184;-63
2021/04/13 09:53:16;;;;;;;1.80;1.70;;;16.60;86.60;;;;;;5062665;28;20660;-63
2021/04/13 09:55:57;;;;;;;3.17;2.10;;;17.50;84.00;;;;;;5061101;28;20625;-63
2021/04/13 09:58:48;;;;;;;4.33;2.03;;;17.50;85.20;;;;;;5058154;28;20206;-63
2021/04/13 10:01:34;;;;;;;17.77;2.70;;;18.10;88.40;;;;;;5057824;28;20473;-63
2021/04/13 10:04:32;;;;;;;2.40;2.00;;;18.60;84.30;;;;;;5059146;28;20245;-63
2021/04/13 10:07:15;;;;;;;2.90;2.00;;;18.30;85.20;;;;;;5065670;28;20188;-63
2021/04/13 10:09:44;;;;;;;2.03;1.93;;;18.00;86.10;;;;;;5060808;28;20258;-63
2021/04/13 10:12:36;;;;;;;1.90;1.80;;;18.60;85.50;;;;;;5065525;28;20232;-64
2021/04/13 10:15:25;;;;;;;6.73;2.40;;;18.80;89.60;;;;;;5059342;28;20210;-64
2021/04/13 10:18:21;;;;;;;3.07;2.47;;;19.20;88.70;;;;;;5062697;28;20265;-65
2021/04/13 10:21:04;;;;;;;4.83;2.27;;;19.40;80.00;;;;;;5072925;28;20196;-64
2021/04/13 10:23:55;;;;;;;3.13;1.93;;;19.40;82.80;;;;;;5061083;28;20222;-64
2021/04/13 10:26:55;;;;;;;4.10;2.00;;;20.50;81.70;;;;;;5062844;28;20964;-63
2021/04/13 10:30:02;;;;;;;12.33;3.13;;;20.20;76.00;;;;;;5066217;28;20226;-64
2021/04/13 10:33:06;;;;;;;3.00;2.43;;;19.70;77.50;;;;;;5057279;28;20217;-63
2021/04/13 10:36:08;;;;;;;2.70;2.50;;;18.80;74.70;;;;;;5062455;28;20434;-63
2021/04/13 10:39:15;;;;;;;3.83;2.67;;;18.80;79.60;;;;;;5063661;28;20199;-64
2021/04/13 10:42:28;;;;;;;2.80;2.60;;;19.20;80.30;;;;;;5064393;28;20261;-63
2021/04/13 10:45:19;;;;;;;2.93;2.60;;;19.80;81.30;;;;;;5074462;28;20220;-64
2021/04/13 10:48:18;;;;;;;3.53;2.40;;;20.10;78.50;;;;;;5061706;28;20228;-63
2021/04/13 10:51:18;;;;;;;4.47;2.37;;;19.70;80.80;;;;;;5058079;28;20693;-63
2021/04/13 10:54:17;;;;;;;3.17;2.50;;;19.50;81.90;;;;;;5053944;28;20235;-63
2021/04/13 10:57:10;;;;;;;4.50;2.70;;;19.80;80.10;;;;;;5057440;28;20472;-63
2021/04/13 11:00:07;;;;;;;3.83;2.60;;;19.70;80.70;;;;;;5059993;28;20223;-63
2021/04/13 11:02:59;;;;;;;4.00;1.87;;;18.20;78.10;;;;;;5057280;28;20200;-63
2021/04/13 11:05:49;;;;;;;2.93;2.50;;;16.60;79.00;;;;;;5055275;28;20197;-62
2021/04/13 11:08:58;;;;;;;3.90;2.70;;;16.60;83.60;;;;;;5048341;28;20289;-63
2021/04/13 11:12:03;;;;;;;2.30;2.10;;;17.20;79.30;;;;;;5061812;28;20200;-63
2021/04/13 11:15:00;;;;;;;2.87;2.20;;;16.70;74.00;;;;;;5066051;28;20608;-63
2021/04/13 11:17:58;;;;;;;2.43;2.23;;;16.20;79.60;;;;;;5064327;28;20251;-63
2021/04/13 11:20:50;;;;;;;3.30;2.40;;;16.90;83.70;;;;;;5060204;28;20551;-63
2021/04/13 11:24:04;;;;;;;2.60;2.30;;;18.00;80.80;;;;;;5082787;28;20197;-63
2021/04/13 11:27:02;;;;;;;2.30;2.20;;;18.20;80.90;;;;;;5023381;28;20214;-63
2021/04/13 11:29:52;;;;;;;2.30;2.20;;;18.50;78.00;;;;;;5057666;28;20308;-62
2021/04/13 11:32:52;;;;;;;3.10;2.80;;;17.30;70.30;;;;;;5058134;28;20198;-62
2021/04/13 11:35:22;;;;;;;2.90;2.30;;;16.20;74.70;;;;;;5059335;28;20218;-63
2021/04/13 11:38:29;;;;;;;4.33;2.53;;;16.70;81.70;;;;;;5055008;28;20290;-63
2021/04/13 11:41:47;;;;;;;3.70;2.30;;;17.80;81.40;;;;;;5062176;28;20195;-63
2021/04/13 11:44:23;;;;;;;2.30;2.10;;;18.80;79.10;;;;;;5058319;28;20625;-63
2021/04/13 11:46:55;;;;;;;2.60;2.40;;;18.80;73.20;;;;;;5063357;28;20192;-62
2021/04/13 11:49:33;;;;;;;2.70;1.93;;;18.30;76.70;;;;;;5051673;28;20192;-63
2021/04/13 11:52:09;;;;;;;2.37;2.20;;;18.20;78.50;;;;;;5069578;28;20223;-63
2021/04/13 11:54:44;;;;;;;3.60;2.27;;;18.10;77.40;;;;;;5065828;28;20619;-63
2021/04/13 11:57:15;;;;;;;4.73;2.07;;;17.80;76.00;;;;;;5064140;28;20215;-62
2021/04/13 11:59:43;;;;;;;3.33;2.30;;;18.20;78.90;;;;;;5067193;28;20286;-63
2021/04/13 12:02:26;;;;;;;3.57;2.20;;;18.30;79.90;;;;;;5062508;28;20199;-63
2021/04/13 12:04:55;;;;;;;2.27;2.00;;;18.40;81.10;;;;;;5066736;28;20199;-62
2021/04/13 12:07:45;;;;;;;2.20;2.00;;;18.40;73.30;;;;;;5066459;28;20705;-62
2021/04/13 12:10:34;;;;;;;2.47;2.20;;;18.30;76.60;;;;;;5056769;28;20185;-62
2021/04/13 12:13:05;;;;;;;3.40;2.33;;;18.50;77.50;;;;;;5065745;28;20201;-63
2021/04/13 12:15:57;;;;;;;2.53;2.40;;;18.60;79.50;;;;;;5063627;28;20257;-62
2021/04/13 12:18:58;;;;;;;3.03;2.40;;;17.50;72.40;;;;;;5060076;28;20606;-62
2021/04/13 12:21:51;;;;;;;3.87;2.40;;;16.90;81.30;;;;;;5046594;28;20210;-62
2021/04/13 12:24:51;;;;;;;3.50;2.37;;;17.60;79.40;;;;;;5077350;28;20566;-63
2021/04/13 12:27:45;;;;;;;2.60;2.40;;;17.90;79.60;;;;;;5061347;28;20191;-62
2021/04/13 12:31:04;;;;;;;3.23;2.30;;;17.90;76.60;;;;;;5063336;28;20200;-62
2021/04/13 12:34:02;;;;;;;2.70;2.10;;;17.80;78.80;;;;;;5077149;28;20192;-64
2021/04/13 12:36:57;;;;;;;3.03;2.03;;;17.20;76.70;;;;;;5066497;28;20231;-63
2021/04/13 12:39:48;;;;;;;2.20;2.03;;;17.00;73.40;;;;;;5063608;28;20208;-65
2021/04/13 12:42:28;;;;;;;2.80;2.03;;;16.90;78.00;;;;;;5077917;28;20187;-63
2021/04/13 12:45:38;;;;;;;2.10;2.00;;;16.80;73.60;;;;;;5057052;28;20768;-64
2021/04/13 12:48:41;;;;;;;2.50;2.30;;;16.10;74.40;;;;;;5076337;28;20601;-64
2021/04/13 12:51:28;;;;;;;2.27;2.00;;;16.10;81.50;;;;;;5089253;28;20615;-64
2021/04/13 12:54:08;;;;;;;3.00;1.53;;;15.50;81.80;;;;;;5089377;28;20229;-63
2021/04/13 12:56:36;;;;;;;2.50;1.93;;;15.60;71.00;;;;;;5072949;28;20219;-64
2021/04/13 12:59:12;;;;;;;2.10;2.00;;;15.70;71.60;;;;;;5087533;28;20278;-64
2021/04/13 13:01:42;;;;;;;3.40;2.20;;;15.60;72.20;;;;;;5068995;28;20192;-64
2021/04/13 13:04:13;;;;;;;1.80;1.70;;;15.40;75.80;;;;;;5066687;28;20199;-63
2021/04/13 13:06:46;;;;;;;1.63;1.63;;;15.20;74.40;;;;;;5069027;28;20230;-63
2021/04/13 13:09:25;;;;;;;3.83;2.07;;;14.90;76.50;;;;;;5067797;28;20247;-63
2021/04/13 13:12:03;;;;;;;1.90;1.80;;;14.80;78.10;;;;;;5066648;28;20249;-63
2021/04/13 13:14:33;;;;;;;1.90;1.80;;;15.10;77.40;;;;;;5068112;28;20196;-65
2021/04/13 13:17:01;;;;;;;2.00;1.90;;;15.40;76.30;;;;;;5067356;28;20239;-63
2021/04/13 13:19:33;;;;;;;2.40;2.20;;;15.20;75.40;;;;;;5067263;28;20211;-63
2021/04/13 13:22:11;;;;;;;2.07;1.87;;;15.00;74.60;;;;;;5067576;28;20227;-64
2021/04/13 13:24:39;;;;;;;2.30;2.10;;;14.40;72.30;;;;;;5066916;28;20632;-63
2021/04/13 13:27:19;;;;;;;3.67;2.03;;;13.80;77.10;;;;;;5068106;28;20241;-64
2021/04/13 13:29:48;;;;;;;1.93;1.83;;;13.80;78.40;;;;;;5068945;28;20180;-63